createdAt,value
2022-11-26T00:35:42.873Z,9.302885
2022-11-26T01:24:38.028Z,9.303014
2022-11-26T01:36:47.118Z,9.303222
2022-11-26T01:37:47.110Z,9.303101
2022-11-26T01:38:47.146Z,9.303043
2022-11-26T01:39:47.122Z,9.303101
2022-11-26T01:40:47.089Z,9.303059
2022-11-26T01:41:47.063Z,9.303146
2022-11-26T01:42:47.034Z,9.303089
2022-11-26T01:43:47.061Z,9.303077
2022-11-26T01:44:47.029Z,9.302954
2022-11-26T01:45:47.078Z,9.302980
2022-11-26T01:46:47.022Z,9.302890
2022-11-26T01:47:47.024Z,9.303093
2022-11-26T01:48:47.024Z,9.302990
2022-11-26T01:49:47.013Z,9.302977
2022-11-26T01:50:46.973Z,9.302825
2022-11-26T01:51:46.939Z,9.302702
2022-11-26T01:52:46.945Z,9.302537
2022-11-26T01:53:46.956Z,9.302745
2022-11-26T01:54:46.967Z,9.302930
2022-11-26T01:55:46.954Z,9.303067
2022-11-26T01:56:46.922Z,9.303061
2022-11-26T01:57:46.891Z,9.303184
2022-11-26T01:58:46.928Z,9.303154
2022-11-26T01:59:46.860Z,9.303087
2022-11-26T02:00:46.877Z,9.303142
2022-11-26T02:01:46.965Z,9.303095
2022-11-26T02:02:46.917Z,9.303086
2022-11-26T02:03:46.868Z,9.303074
2022-11-26T02:04:46.943Z,9.303097
2022-11-26T02:05:46.821Z,9.303136
2022-11-26T02:06:46.783Z,9.303100
2022-11-26T02:07:46.871Z,9.303074
2022-11-26T02:08:46.849Z,9.303082
2022-11-26T02:09:46.773Z,9.302986
2022-11-26T02:10:46.766Z,9.303010
2022-11-26T02:11:46.748Z,9.303059
2022-11-26T02:12:46.762Z,9.303044
2022-11-26T02:13:47.792Z,9.303092
2022-11-26T02:14:46.819Z,9.303078
2022-11-26T02:15:46.771Z,9.303060
2022-11-26T02:16:46.799Z,9.303073
2022-11-26T02:17:46.741Z,9.303067
2022-11-26T02:18:46.729Z,9.302999
2022-11-26T02:19:46.678Z,9.303011
2022-11-26T02:20:46.659Z,9.303066
2022-11-26T02:21:46.695Z,9.303129
2022-11-26T02:22:46.653Z,9.303041
2022-11-26T02:23:46.688Z,9.302930
2022-11-26T02:24:46.667Z,9.303024
2022-11-26T02:25:46.673Z,9.303073
2022-11-26T02:26:46.682Z,9.303062
2022-11-26T02:27:46.686Z,9.303134
2022-11-26T02:28:46.669Z,9.302983
2022-11-26T02:29:46.678Z,9.302991
2022-11-26T02:30:46.656Z,9.302974
2022-11-26T02:31:46.699Z,9.303019
2022-11-26T02:32:46.620Z,9.303046
2022-11-26T02:33:46.622Z,9.303011
2022-11-26T02:34:46.560Z,9.302864
2022-11-26T02:35:46.593Z,9.302950
2022-11-26T02:36:46.559Z,9.302953
2022-11-26T02:37:46.552Z,9.302956
2022-11-26T02:38:46.569Z,9.303048
2022-11-26T02:39:46.525Z,9.303051
2022-11-26T02:40:46.532Z,9.302947
2022-11-26T02:41:46.524Z,9.302932
2022-11-26T02:42:46.501Z,9.302884
2022-11-26T02:43:46.483Z,9.302979
2022-11-26T02:44:46.463Z,9.302979
2022-11-26T02:45:46.530Z,9.303036
2022-11-26T02:46:46.445Z,9.303070
2022-11-26T02:47:46.459Z,9.302935
2022-11-26T02:48:46.459Z,9.303043
2022-11-26T02:49:46.456Z,9.302960
2022-11-26T02:50:46.447Z,9.302959
2022-11-26T02:51:46.426Z,9.302983
2022-11-26T02:52:46.377Z,9.303031
2022-11-26T02:53:47.413Z,9.302985
2022-11-26T02:54:46.410Z,9.303072
2022-11-26T02:55:46.383Z,9.303068
2022-11-26T02:56:46.389Z,9.303105
2022-11-26T02:57:46.359Z,9.303093
2022-11-26T02:58:46.323Z,9.302997
2022-11-26T02:59:46.316Z,9.302940
2022-11-26T03:00:46.297Z,9.302946
2022-11-26T03:01:46.303Z,9.302923
2022-11-26T03:02:46.279Z,9.302842
2022-11-26T03:03:46.330Z,9.302958
2022-11-26T03:04:46.274Z,9.303077
2022-11-26T03:05:46.244Z,9.303027
2022-11-26T03:06:46.234Z,9.302889
2022-11-26T03:07:46.301Z,9.303015
2022-11-26T03:08:46.200Z,9.302983
2022-11-26T03:09:46.203Z,9.302980
2022-11-26T03:10:46.184Z,9.303065
2022-11-26T03:11:46.299Z,9.303047
2022-11-26T03:12:46.203Z,9.302919
2022-11-26T03:13:46.161Z,9.303020
2022-11-26T03:14:46.174Z,9.302939
2022-11-26T03:15:46.140Z,9.302981
2022-11-26T03:16:46.247Z,9.302874
2022-11-26T03:17:46.161Z,9.303111
2022-11-26T03:18:46.151Z,9.303142
2022-11-26T03:19:46.096Z,9.302890
2022-11-26T03:20:46.128Z,9.302939
2022-11-26T03:21:46.086Z,9.302994
2022-11-26T03:22:46.048Z,9.302908
2022-11-26T03:23:46.059Z,9.302974
2022-11-26T03:24:46.039Z,9.302836
2022-11-26T03:25:46.036Z,9.302879
2022-11-26T03:26:46.040Z,9.302831
2022-11-26T03:27:46.036Z,9.302774
2022-11-26T03:28:46.050Z,9.302837
2022-11-26T03:29:46.011Z,9.302904
2022-11-26T03:30:46.023Z,9.302857
2022-11-26T03:31:46.018Z,9.302964
2022-11-26T03:52:43.994Z,9.303264
2022-11-26T03:53:43.926Z,9.303103
2022-11-26T03:54:43.897Z,9.303245
2022-11-26T03:55:43.895Z,9.303201
2022-11-26T03:56:43.868Z,9.303290
2022-11-26T03:57:43.886Z,9.303184
2022-11-26T03:58:43.836Z,9.303218
2022-11-26T03:59:43.879Z,9.303054
2022-11-26T04:00:43.814Z,9.303287
2022-11-26T04:01:43.960Z,9.303210
2022-11-26T04:02:43.847Z,9.303259
2022-11-26T04:03:43.850Z,9.303152
2022-11-26T04:04:43.817Z,9.303115
2022-11-26T04:05:43.813Z,9.303283
2022-11-26T04:06:43.755Z,9.303250
2022-11-26T04:07:43.825Z,9.303091
2022-11-26T04:08:43.738Z,9.303119
2022-11-26T04:09:43.797Z,9.302984
2022-11-26T04:10:43.752Z,9.302863
2022-11-26T04:11:43.816Z,9.303102
2022-11-26T04:12:43.732Z,9.303053
2022-11-26T04:13:43.743Z,9.303102
2022-11-26T04:14:43.741Z,9.303158
2022-11-26T04:15:43.688Z,9.303060
2022-11-26T04:16:43.697Z,9.302935
2022-11-26T04:17:43.671Z,9.303228
2022-11-26T04:18:43.697Z,9.303161
2022-11-26T04:19:43.707Z,9.303224
2022-11-26T04:20:43.612Z,9.303183
2022-11-26T04:21:43.693Z,9.303122
2022-11-26T04:22:43.654Z,9.303131
2022-11-26T04:23:43.647Z,9.303187
2022-11-26T04:24:43.614Z,9.302993
2022-11-26T04:25:43.594Z,9.303203
2022-11-26T04:26:43.616Z,9.303495
2022-11-26T04:27:43.597Z,9.303419
2022-11-26T04:28:43.560Z,9.303155
2022-11-26T04:29:43.625Z,9.303397
2022-11-26T04:30:43.591Z,9.302910
2022-11-26T04:31:43.633Z,9.303372
2022-11-26T04:32:43.545Z,9.303497
2022-11-26T04:33:43.509Z,9.303185
2022-11-26T04:34:43.581Z,9.303269
2022-11-26T04:35:43.534Z,9.303034
2022-11-26T04:36:43.505Z,9.302952
2022-11-26T04:37:43.509Z,9.302813
2022-11-26T04:38:43.469Z,9.302874
2022-11-26T04:39:43.460Z,9.302977
2022-11-26T04:40:43.451Z,9.303063
2022-11-26T04:41:43.437Z,9.303069
2022-11-26T04:42:43.429Z,9.303617
2022-11-26T04:43:43.467Z,9.303201
2022-11-26T04:44:43.442Z,9.303094
2022-11-26T04:45:43.453Z,9.302882
2022-11-26T04:46:43.368Z,9.303037
2022-11-26T04:47:43.394Z,9.303075
2022-11-26T04:48:43.363Z,9.303228
2022-11-26T04:49:43.437Z,9.303338
2022-11-26T04:50:43.330Z,9.302906
2022-11-26T04:51:43.363Z,9.302812
2022-11-26T04:52:43.340Z,9.303180
2022-11-26T04:53:43.342Z,9.303021
2022-11-26T04:54:43.355Z,9.302896
2022-11-26T04:55:43.305Z,9.302996
2022-11-26T04:56:43.280Z,9.303100
2022-11-26T04:57:43.311Z,9.303115
2022-11-26T04:58:43.313Z,9.303065
2022-11-26T04:59:43.353Z,9.303065
2022-11-26T05:00:43.289Z,9.303095
2022-11-26T05:01:43.318Z,9.303103
2022-11-26T05:02:43.307Z,9.303184
2022-11-26T05:03:43.225Z,9.303016
2022-11-26T05:04:43.205Z,9.302828
2022-11-26T05:05:43.204Z,9.302852
2022-11-26T05:06:43.259Z,9.302947
2022-11-26T05:07:43.289Z,9.302933
2022-11-26T05:08:43.213Z,9.303047
2022-11-26T05:09:43.167Z,9.303057
2022-11-26T05:10:43.144Z,9.303090
2022-11-26T05:11:43.153Z,9.303044
2022-11-26T05:12:43.127Z,9.303145
2022-11-26T05:13:43.115Z,9.303082
2022-11-26T05:14:43.183Z,9.302946
2022-11-26T05:15:43.092Z,9.302971
2022-11-26T05:16:44.113Z,9.302836
2022-11-26T05:17:43.092Z,9.302868
2022-11-26T05:18:43.072Z,9.302781
2022-11-26T05:19:43.125Z,9.302882
2022-11-26T05:20:43.051Z,9.302938
2022-11-26T05:21:43.006Z,9.303111
2022-11-26T05:22:43.026Z,9.303169
2022-11-26T05:23:43.008Z,9.303040
2022-11-26T05:24:42.990Z,9.303083
2022-11-26T05:25:42.975Z,9.303057
2022-11-26T05:26:43.014Z,9.302931
2022-11-26T05:27:42.992Z,9.303013
2022-11-26T05:28:43.009Z,9.303066
2022-11-26T05:29:42.975Z,9.303054
2022-11-26T05:30:42.955Z,9.303045
2022-11-26T05:31:43.055Z,9.302950
2022-11-26T05:32:42.995Z,9.302897
2022-11-26T05:33:42.911Z,9.302912
2022-11-26T05:34:42.966Z,9.302840
2022-11-26T05:35:42.915Z,9.302885
2022-11-26T05:36:42.919Z,9.302871
2022-11-26T05:37:42.919Z,9.302875
2022-11-26T05:38:42.880Z,9.302999
2022-11-26T05:39:42.867Z,9.302876
2022-11-26T05:40:42.907Z,9.302912
2022-11-26T05:41:42.881Z,9.302941
2022-11-26T05:42:42.835Z,9.302939
2022-11-26T05:43:42.814Z,9.302969
2022-11-26T05:44:42.886Z,9.302921
2022-11-26T05:45:42.888Z,9.302930
2022-11-26T05:46:42.881Z,9.302965
2022-11-26T05:47:42.772Z,9.302927
2022-11-26T05:48:42.781Z,9.303005
2022-11-26T05:49:42.812Z,9.303093
2022-11-26T05:50:42.749Z,9.302990
2022-11-26T05:51:42.734Z,9.303107
2022-11-26T05:52:42.748Z,9.303177
2022-11-26T05:53:42.697Z,9.303140
2022-11-26T05:54:42.841Z,9.303066
2022-11-26T05:55:42.701Z,9.303042
2022-11-26T05:56:42.699Z,9.303059
2022-11-26T05:57:42.709Z,9.303020
2022-11-26T05:58:42.700Z,9.303134
2022-11-26T05:59:42.701Z,9.302837
2022-11-26T06:00:43.705Z,9.302983
2022-11-26T06:01:42.720Z,9.303011
2022-11-26T06:02:42.844Z,9.302947
2022-11-26T06:03:42.680Z,9.303013
2022-11-26T06:04:42.623Z,9.302998
2022-11-26T06:05:42.638Z,9.302940
2022-11-26T06:06:42.620Z,9.302879
2022-11-26T06:07:45.038Z,9.302835
2022-11-26T06:08:43.616Z,9.302892
2022-11-26T06:09:42.615Z,9.303003
2022-11-26T06:10:42.591Z,9.303049
2022-11-26T06:11:42.587Z,9.302752
2022-11-26T06:12:42.536Z,9.302916
2022-11-26T06:13:42.572Z,9.302953
2022-11-26T06:14:43.565Z,9.303035
2022-11-26T06:15:43.536Z,9.302998
2022-11-26T06:16:42.598Z,9.302993
2022-11-26T06:17:42.452Z,9.302991
2022-11-26T06:18:42.461Z,9.303045
2022-11-26T06:19:42.505Z,9.302994
2022-11-26T06:20:42.493Z,9.303072
2022-11-26T06:21:42.451Z,9.302999
2022-11-26T06:22:42.447Z,9.303046
2022-11-26T06:23:47.496Z,9.303041
2022-11-26T06:24:43.426Z,9.303031
2022-11-26T06:25:42.459Z,9.303021
2022-11-26T06:26:42.392Z,9.303096
2022-11-26T06:27:42.409Z,9.303053
2022-11-26T06:28:42.412Z,9.303127
2022-11-26T06:29:42.343Z,9.303083
2022-11-26T06:30:42.414Z,9.303067
2022-11-26T06:31:42.418Z,9.303136
2022-11-26T06:32:42.362Z,9.303071
2022-11-26T06:33:42.381Z,9.303032
2022-11-26T06:34:44.045Z,9.303010
2022-11-26T06:35:43.348Z,9.302828
2022-11-26T06:36:42.333Z,9.302872
2022-11-26T06:37:42.320Z,9.302908
2022-11-26T06:38:42.322Z,9.303047
2022-11-26T06:39:42.261Z,9.302977
2022-11-26T06:40:42.291Z,9.303063
2022-11-26T06:41:42.254Z,9.303102
2022-11-26T06:42:43.059Z,9.303187
2022-11-26T06:43:42.288Z,9.303141
2022-11-26T06:44:42.272Z,9.303183
2022-11-26T06:45:42.314Z,9.303118
2022-11-26T06:46:42.204Z,9.303086
2022-11-26T06:47:42.191Z,9.302937
2022-11-26T06:48:42.230Z,9.302930
2022-11-26T06:49:42.151Z,9.302908
2022-11-26T06:50:42.170Z,9.303081
2022-11-26T06:51:42.189Z,9.303115
2022-11-26T06:52:42.176Z,9.303075
2022-11-26T06:53:42.138Z,9.303160
2022-11-26T06:54:42.116Z,9.303022
2022-11-26T06:55:42.154Z,9.303060
2022-11-26T06:56:42.072Z,9.303014
2022-11-26T06:57:42.157Z,9.302917
2022-11-26T06:58:42.145Z,9.302891
2022-11-26T06:59:42.104Z,9.302881
2022-11-26T07:00:42.094Z,9.302925
2022-11-26T07:01:42.122Z,9.302941
2022-11-26T07:02:42.174Z,9.302950
2022-11-26T07:03:42.033Z,9.302910
2022-11-26T07:04:42.007Z,9.303074
2022-11-26T07:05:42.250Z,9.303083
2022-11-26T07:06:41.991Z,9.302999
2022-11-26T07:07:42.089Z,9.302917
2022-11-26T07:08:41.994Z,9.302944
2022-11-26T07:09:41.992Z,9.302759
2022-11-26T07:10:47.528Z,9.302993
2022-11-26T07:11:42.986Z,9.303050
2022-11-26T07:12:42.002Z,9.303071
2022-11-26T07:13:41.994Z,9.303012
2022-11-26T07:14:42.157Z,9.302940
2022-11-26T07:15:41.998Z,9.302925
2022-11-26T07:16:41.891Z,9.303061
2022-11-26T07:17:41.897Z,9.302950
2022-11-26T07:18:41.894Z,9.302764
2022-11-26T07:19:41.868Z,9.302785
2022-11-26T07:20:41.881Z,9.302906
2022-11-26T07:21:41.865Z,9.302948
2022-11-26T07:22:41.891Z,9.303018
2022-11-26T07:23:41.859Z,9.302994
2022-11-26T07:24:41.935Z,9.302999
2022-11-26T07:25:41.844Z,9.303015
2022-11-26T07:26:41.844Z,9.302988
2022-11-26T07:35:42.598Z,9.303180
2022-11-26T07:36:42.631Z,9.303083
2022-11-26T08:47:51.401Z,9.303067
2022-11-26T08:48:51.273Z,9.303109
2022-11-26T08:49:52.371Z,9.303154
2022-11-26T08:50:50.586Z,9.303202
2022-11-26T09:20:50.772Z,9.303069
2022-11-26T09:21:51.142Z,9.303386
2022-11-26T09:22:54.192Z,9.303354
2022-11-26T09:23:50.618Z,9.303297
2022-11-26T09:24:47.455Z,9.303236
2022-11-26T09:25:48.228Z,9.302951
2022-11-26T09:34:35.650Z,9.302656
2022-11-26T09:35:33.658Z,9.302808
2022-11-26T09:36:36.436Z,9.302913
2022-11-26T09:37:33.217Z,9.303008
2022-11-26T10:00:43.517Z,9.302649
2022-11-26T10:47:50.770Z,9.303167
2022-11-26T10:54:05.918Z,9.303482
2022-11-26T10:55:05.716Z,9.303461
2022-11-26T10:56:05.853Z,9.303342
2022-11-26T10:57:05.711Z,9.303251
2022-11-26T10:58:05.779Z,9.303229
2022-11-26T10:59:05.695Z,9.303144
2022-11-26T11:00:05.721Z,9.303150
2022-11-26T11:01:05.800Z,9.303162
2022-11-26T11:02:05.709Z,9.303174
2022-11-26T11:03:05.691Z,9.303187
2022-11-26T11:04:08.207Z,9.303173
2022-11-26T11:05:06.615Z,9.303170
2022-11-26T11:06:05.722Z,9.303113
2022-11-26T11:07:11.635Z,9.303081
2022-11-26T11:08:07.628Z,9.303082
2022-11-26T11:09:05.678Z,9.303071
2022-11-26T11:10:05.613Z,9.303122
2022-11-26T11:11:05.607Z,9.303168
2022-11-26T11:12:05.596Z,9.303057
2022-11-26T11:13:05.576Z,9.302809
2022-11-26T11:14:05.553Z,9.303009
2022-11-26T11:15:05.499Z,9.303131
2022-11-26T11:16:05.603Z,9.303067
2022-11-26T11:17:05.518Z,9.303057
2022-11-26T11:18:05.501Z,9.303021
2022-11-26T11:19:05.525Z,9.303038
2022-11-26T11:20:05.520Z,9.303048
2022-11-26T11:21:05.565Z,9.303030
2022-11-26T11:22:05.487Z,9.303093
2022-11-26T11:23:05.484Z,9.303063
2022-11-26T11:24:09.196Z,9.303144
2022-11-26T11:25:06.448Z,9.303159
2022-11-26T11:26:05.528Z,9.303116
2022-11-26T11:27:05.432Z,9.303036
2022-11-26T11:28:10.490Z,9.303059
2022-11-26T11:29:07.399Z,9.303053
2022-11-26T11:30:05.427Z,9.303033
2022-11-26T11:31:05.495Z,9.303016
2022-11-26T11:32:05.463Z,9.303045
2022-11-26T11:33:05.355Z,9.303055
2022-11-26T11:34:05.357Z,9.303069
2022-11-26T11:35:05.334Z,9.303029
2022-11-26T11:36:05.354Z,9.303050
2022-11-26T11:37:05.363Z,9.303034
2022-11-26T11:38:05.317Z,9.302938
2022-11-26T11:39:05.404Z,9.302970
2022-11-26T11:40:05.330Z,9.302990
2022-11-26T11:41:05.267Z,9.303082
2022-11-26T11:42:05.295Z,9.303092
2022-11-26T11:43:05.271Z,9.302927
2022-11-26T11:44:05.246Z,9.302832
2022-11-26T11:45:07.379Z,9.302759
2022-11-26T11:46:05.392Z,9.302645
2022-11-26T11:47:05.527Z,9.302854
2022-11-26T11:48:05.234Z,9.302963
2022-11-26T11:49:05.240Z,9.302905
2022-11-26T11:50:05.226Z,9.302947
2022-11-26T11:51:05.251Z,9.302931
2022-11-26T11:52:05.219Z,9.302963
2022-11-26T11:53:06.164Z,9.302814
2022-11-26T11:54:05.631Z,9.302967
2022-11-26T11:55:05.329Z,9.303008
2022-11-26T11:56:05.196Z,9.302915
2022-11-26T11:57:05.244Z,9.302991
2022-11-26T11:58:05.159Z,9.303084
2022-11-26T11:59:05.153Z,9.302960
2022-11-26T12:00:05.679Z,9.302976
2022-11-26T12:01:06.672Z,9.302867
2022-11-26T12:02:05.178Z,9.303013
2022-11-26T12:03:05.107Z,9.302974
2022-11-26T12:04:08.519Z,9.302902
2022-11-26T12:05:06.128Z,9.302913
2022-11-26T12:06:05.048Z,9.302937
2022-11-26T12:07:05.042Z,9.302990
2022-11-26T12:08:05.219Z,9.303033
2022-11-26T12:09:05.077Z,9.302985
2022-11-26T12:10:05.186Z,9.302999
2022-11-26T12:11:04.969Z,9.302999
2022-11-26T12:12:05.134Z,9.302980
2022-11-26T12:13:05.007Z,9.302992
2022-11-26T12:14:04.953Z,9.302984
2022-11-26T12:15:04.966Z,9.302979
2022-11-26T12:16:04.941Z,9.302930
2022-11-26T12:17:05.103Z,9.302929
2022-11-26T12:18:04.981Z,9.302943
2022-11-26T12:19:05.018Z,9.302932
2022-11-26T12:20:04.902Z,9.302944
2022-11-26T12:21:04.892Z,9.302979
2022-11-26T12:22:04.914Z,9.302953
2022-11-26T12:23:05.859Z,9.302971
2022-11-26T12:24:04.852Z,9.302998
2022-11-26T12:25:04.868Z,9.302959
2022-11-26T12:26:04.854Z,9.302856
2022-11-26T12:27:04.879Z,9.302931
2022-11-26T12:28:04.808Z,9.303000
2022-11-26T12:29:04.835Z,9.302999
2022-11-26T12:30:04.819Z,9.302877
2022-11-26T12:31:04.816Z,9.302904
2022-11-26T12:32:04.843Z,9.303123
2022-11-26T12:33:04.776Z,9.303008
2022-11-26T12:34:08.535Z,9.302946
2022-11-26T12:35:05.737Z,9.302855
2022-11-26T12:36:04.760Z,9.303082
2022-11-26T12:37:04.839Z,9.303014
2022-11-26T12:38:04.714Z,9.303034
2022-11-26T12:39:04.746Z,9.303025
2022-11-26T12:40:04.695Z,9.303173
2022-11-26T12:41:04.715Z,9.303060
2022-11-26T12:42:04.722Z,9.303020
2022-11-26T12:43:04.661Z,9.302866
2022-11-26T12:44:04.673Z,9.302986
2022-11-26T12:45:07.194Z,9.303077
2022-11-26T12:46:04.764Z,9.302827
2022-11-26T12:47:04.679Z,9.303008
2022-11-26T12:48:04.709Z,9.303102
2022-11-26T12:49:04.690Z,9.302874
2022-11-26T12:50:04.619Z,9.302935
2022-11-26T12:51:04.661Z,9.302934
2022-11-26T12:52:04.600Z,9.303055
2022-11-26T12:53:04.624Z,9.303092
2022-11-26T12:54:04.568Z,9.302942
2022-11-26T12:55:04.552Z,9.302955
2022-11-26T12:56:04.606Z,9.302922
2022-11-26T12:57:04.571Z,9.303190
2022-11-26T12:58:04.543Z,9.303307
2022-11-26T12:59:04.624Z,9.303106
2022-11-26T13:00:04.531Z,9.302939
2022-11-26T13:01:05.561Z,9.302842
2022-11-26T13:02:04.524Z,9.303080
2022-11-26T13:03:04.491Z,9.303065
2022-11-26T13:04:35.596Z,9.303129
2022-11-26T13:05:06.440Z,9.303093
2022-11-26T13:06:04.472Z,9.303047
2022-11-26T13:07:08.775Z,9.303050
2022-11-26T13:08:04.448Z,9.303302
2022-11-26T13:09:04.430Z,9.303330
2022-11-26T13:10:04.415Z,9.303293
2022-11-26T13:11:08.740Z,9.303090
2022-11-26T13:12:06.422Z,9.303092
2022-11-26T13:13:04.377Z,9.303103
2022-11-26T13:14:04.395Z,9.303029
2022-11-26T13:15:04.380Z,9.303028
2022-11-26T13:16:04.391Z,9.303071
2022-11-26T13:17:04.346Z,9.302981
2022-11-26T13:18:04.308Z,9.302761
2022-11-26T13:19:06.842Z,9.302991
2022-11-26T13:20:05.350Z,9.302876
2022-11-26T13:21:04.310Z,9.302987
2022-11-26T13:22:04.343Z,9.302916
2022-11-26T13:23:04.289Z,9.302816
2022-11-26T13:24:04.265Z,9.302805
2022-11-26T13:25:04.265Z,9.302769
2022-11-26T13:26:04.259Z,9.302704
2022-11-26T13:27:04.321Z,9.302729
2022-11-26T14:48:10.356Z,9.303076
2022-11-26T14:50:16.906Z,9.303076
2022-11-26T15:05:29.355Z,9.302957
2022-11-26T15:06:29.226Z,9.303033
2022-11-26T15:07:30.160Z,9.303007
2022-11-26T15:08:29.173Z,9.303038
2022-11-26T15:09:29.166Z,9.302982
2022-11-26T15:10:29.141Z,9.303094
2022-11-26T15:11:29.201Z,9.303027
2022-11-26T15:12:29.183Z,9.302982
2022-11-26T15:13:29.147Z,9.303004
2022-11-26T15:14:29.103Z,9.303078
2022-11-26T15:15:29.374Z,9.303119
2022-11-26T15:16:29.383Z,9.303028
2022-11-26T15:17:29.292Z,9.303096
2022-11-26T15:18:29.052Z,9.303123
2022-11-26T15:19:29.016Z,9.303061
2022-11-26T15:20:29.633Z,9.303119
2022-11-26T15:21:29.334Z,9.303007
2022-11-26T15:22:28.985Z,9.302990
2022-11-26T15:23:29.006Z,9.303049
2022-11-26T15:24:29.338Z,9.303027
2022-11-26T15:25:28.935Z,9.303006
2022-11-26T15:26:29.040Z,9.303079
2022-11-26T15:27:29.411Z,9.303126
2022-11-26T15:28:28.967Z,9.303036
2022-11-26T15:29:29.105Z,9.302994
2022-11-26T15:30:29.181Z,9.303022
2022-11-26T15:31:28.890Z,9.303153
2022-11-26T15:32:28.913Z,9.303065
2022-11-26T15:33:29.335Z,9.303037
2022-11-26T15:34:28.876Z,9.303069
2022-11-26T15:35:30.375Z,9.302896
2022-11-26T15:36:28.966Z,9.302996
2022-11-26T15:37:28.831Z,9.303030
2022-11-26T15:38:29.137Z,9.303050
2022-11-26T15:39:29.276Z,9.303084
2022-11-26T15:40:28.872Z,9.302985
2022-11-26T15:41:29.048Z,9.303041
2022-11-26T15:42:29.136Z,9.302975
2022-11-26T15:43:28.906Z,9.302947
2022-11-26T15:44:28.936Z,9.303035
2022-11-26T15:45:28.739Z,9.302971
2022-11-26T15:46:28.821Z,9.302947
2022-11-26T15:47:28.832Z,9.303083
2022-11-26T15:48:50.460Z,9.303091
2022-11-26T15:49:30.868Z,9.303166
2022-11-26T15:50:28.644Z,9.303099
2022-11-26T15:51:34.886Z,9.303179
2022-11-26T15:52:29.764Z,9.303090
2022-11-26T15:53:28.679Z,9.303129
2022-11-26T15:54:43.402Z,9.303074
2022-11-26T15:55:30.749Z,9.303073
2022-11-26T15:56:28.745Z,9.303022
2022-11-26T15:57:28.880Z,9.302957
2022-11-26T15:58:28.878Z,9.302879
2022-11-26T15:59:38.290Z,9.302930
2022-11-26T16:00:29.524Z,9.302949
2022-11-26T16:01:36.116Z,9.302878
2022-11-26T16:02:29.769Z,9.303031
2022-11-26T16:03:28.897Z,9.303129
2022-11-26T16:04:28.716Z,9.303063
2022-11-26T16:05:29.031Z,9.303078
2022-11-26T16:06:29.942Z,9.303046
2022-11-26T16:07:28.834Z,9.303005
2022-11-26T16:08:31.618Z,9.302932
2022-11-26T16:09:28.933Z,9.302937
2022-11-26T16:10:30.320Z,9.303020
2022-11-26T16:11:32.133Z,9.303042
2022-11-26T16:12:28.978Z,9.303041
2022-11-26T16:13:29.072Z,9.302958
2022-11-26T16:14:28.844Z,9.302814
2022-11-26T16:15:29.470Z,9.302774
2022-11-26T16:16:29.159Z,9.302857
2022-11-26T16:17:28.751Z,9.303055
2022-11-26T16:18:28.981Z,9.303148
2022-11-26T16:19:29.825Z,9.303008
2022-11-26T16:20:43.050Z,9.302897
2022-11-26T16:21:30.673Z,9.302989
2022-11-26T16:22:34.756Z,9.302916
2022-11-26T16:23:33.591Z,9.302945
2022-11-26T16:24:45.606Z,9.302975
2022-11-26T16:25:30.880Z,9.303087
2022-11-26T16:27:16.605Z,9.303040
2022-11-26T16:45:09.910Z,9.303603
2022-11-26T17:01:13.226Z,9.303413
2022-11-26T17:04:38.837Z,9.303138
2022-11-26T17:05:14.172Z,9.303031
2022-11-26T17:06:12.672Z,9.303067
2022-11-26T17:08:27.660Z,9.303276
2022-11-26T17:09:11.451Z,9.303276
2022-11-26T17:10:16.316Z,9.303131
2022-11-26T17:12:07.849Z,9.303008
2022-11-26T17:15:42.562Z,9.303008
2022-11-26T17:17:11.773Z,9.302983
2022-11-26T17:18:29.776Z,9.303002
2022-11-26T17:27:31.434Z,9.302995
2022-11-26T17:32:11.042Z,9.302900
2022-11-26T17:33:00.780Z,9.302879
2022-11-26T17:34:23.799Z,9.302889
2022-11-26T17:35:05.317Z,9.302748
2022-11-26T17:36:06.478Z,9.302847
2022-11-26T17:37:04.352Z,9.302974
2022-11-26T17:38:00.156Z,9.302697
2022-11-26T17:39:00.209Z,9.302851
2022-11-26T17:40:03.626Z,9.303017
2022-11-26T17:41:50.726Z,9.302777
2022-11-26T17:42:56.424Z,9.302549
2022-11-26T17:43:18.936Z,9.302549
2022-11-26T17:46:25.970Z,9.302945
2022-11-26T17:47:26.966Z,9.303024
2022-11-26T17:48:27.006Z,9.302973
2022-11-26T17:49:28.494Z,9.302998
2022-11-26T17:50:54.416Z,9.303014
2022-11-26T17:51:28.324Z,9.302950
2022-11-26T17:54:03.023Z,9.303011
2022-11-26T17:54:42.339Z,9.303011
2022-11-26T18:14:55.918Z,9.303364
2022-11-26T18:37:06.033Z,9.303482
2022-11-26T18:40:56.374Z,9.303508
2022-11-26T18:41:44.702Z,9.303394
2022-11-26T18:42:44.893Z,9.303456
2022-11-26T19:49:04.922Z,9.303129
2022-11-26T19:50:04.872Z,9.303058
2022-11-26T19:51:04.896Z,9.303088
2022-11-26T19:52:04.882Z,9.303031
2022-11-26T19:53:04.877Z,9.302869
2022-11-26T19:54:04.866Z,9.302845
2022-11-26T19:55:04.903Z,9.302847
2022-11-26T19:56:04.831Z,9.303040
2022-11-26T19:57:04.808Z,9.303386
2022-11-26T19:58:04.836Z,9.303356
2022-11-26T19:59:04.819Z,9.303053
2022-11-26T20:00:04.892Z,9.303214
2022-11-26T20:01:04.959Z,9.302984
2022-11-26T20:02:04.868Z,9.303100
2022-11-26T20:03:04.825Z,9.303014
2022-11-26T20:04:07.440Z,9.303103
2022-11-26T20:05:05.356Z,9.303147
2022-11-26T20:06:04.792Z,9.303246
2022-11-26T20:07:04.718Z,9.303179
2022-11-26T20:08:05.437Z,9.303025
2022-11-26T20:09:04.728Z,9.302951
2022-11-26T20:10:04.699Z,9.302999
2022-11-26T20:11:04.693Z,9.302986
2022-11-26T20:12:04.675Z,9.303052
2022-11-26T20:13:04.700Z,9.303093
2022-11-26T20:14:04.915Z,9.303173
2022-11-26T20:15:04.679Z,9.303138
2022-11-26T20:16:04.647Z,9.303077
2022-11-26T20:17:04.681Z,9.302979
2022-11-26T20:18:04.614Z,9.303038
2022-11-26T20:19:04.619Z,9.302893
2022-11-26T20:20:04.577Z,9.302985
2022-11-26T20:21:04.573Z,9.303045
2022-11-26T20:22:04.598Z,9.303024
2022-11-26T20:23:06.442Z,9.303075
2022-11-26T20:24:04.550Z,9.303028
2022-11-26T20:25:04.635Z,9.303196
2022-11-26T20:26:04.513Z,9.303193
2022-11-26T20:27:04.526Z,9.303214
2022-11-26T20:28:04.517Z,9.303232
2022-11-26T20:29:04.511Z,9.303013
2022-11-26T20:30:04.487Z,9.303129
2022-11-26T20:31:04.527Z,9.303023
2022-11-26T20:32:04.476Z,9.303102
2022-11-26T20:33:04.467Z,9.303081
2022-11-26T20:34:04.475Z,9.303140
2022-11-26T20:35:04.435Z,9.303135
2022-11-26T20:36:04.425Z,9.303040
2022-11-26T20:37:04.425Z,9.302923
2022-11-26T20:38:04.399Z,9.302939
2022-11-26T20:39:04.436Z,9.302890
2022-11-26T20:40:04.446Z,9.302777
2022-11-26T20:41:04.380Z,9.302864
2022-11-26T20:42:04.386Z,9.302887
2022-11-26T20:43:04.358Z,9.302889
2022-11-26T20:44:04.376Z,9.302760
2022-11-26T20:45:04.379Z,9.302851
2022-11-26T20:46:04.422Z,9.303085
2022-11-26T20:47:04.352Z,9.303237
2022-11-26T20:48:04.297Z,9.303172
2022-11-26T20:49:04.372Z,9.303066
2022-11-26T20:50:04.277Z,9.302836
2022-11-26T20:51:04.275Z,9.302587
2022-11-26T20:52:04.284Z,9.302587
2022-11-26T20:53:04.281Z,9.302600
2022-11-26T20:54:04.261Z,9.302947
2022-11-26T20:55:04.317Z,9.302973
2022-11-26T20:56:04.244Z,9.303177
2022-11-26T20:57:04.206Z,9.303110
2022-11-26T20:58:04.212Z,9.303028
2022-11-26T20:59:04.218Z,9.303160
2022-11-26T21:00:04.165Z,9.302881
2022-11-26T21:01:04.218Z,9.302985
2022-11-26T21:02:04.188Z,9.303132
2022-11-26T21:03:04.208Z,9.302942
2022-11-26T21:04:04.160Z,9.303089
2022-11-26T21:05:04.145Z,9.302998
2022-11-26T21:06:04.156Z,9.302898